createdAt,value
2023-03-02T00:01:44.337Z,-2.80
2023-03-02T00:04:21.891Z,-2.78
2023-03-02T00:06:49.353Z,-2.83
2023-03-02T00:09:17.714Z,-2.86
2023-03-02T00:11:46.325Z,-2.93
2023-03-02T00:14:14.233Z,-3.00
2023-03-02T00:16:41.860Z,-3.09
2023-03-02T00:19:09.869Z,-3.09
2023-03-02T00:21:37.426Z,-3.09
2023-03-02T00:24:05.272Z,-3.07
2023-03-02T00:26:36.287Z,-3.08
2023-03-02T00:29:04.240Z,-3.14
2023-03-02T00:31:31.633Z,-3.21
2023-03-02T00:33:59.282Z,-3.17
2023-03-02T00:36:26.608Z,-3.22
2023-03-02T00:38:54.116Z,-3.23
2023-03-02T00:41:21.843Z,-3.21
2023-03-02T00:43:50.375Z,-3.26
2023-03-02T00:46:21.208Z,-3.21
2023-03-02T00:48:49.102Z,-3.25
2023-03-02T00:51:16.687Z,-3.24
2023-03-02T00:53:44.354Z,-3.25
2023-03-02T00:56:11.848Z,-3.33
2023-03-02T00:58:44.353Z,-3.30
2023-03-02T01:01:13.833Z,-3.31
2023-03-02T01:03:46.148Z,-3.33
2023-03-02T01:06:19.355Z,-3.30
2023-03-02T01:08:47.558Z,-3.33
2023-03-02T01:11:17.185Z,-3.36
2023-03-02T01:13:45.626Z,-3.39
2023-03-02T01:16:13.320Z,-3.35
2023-03-02T01:18:41.402Z,-3.43
2023-03-02T01:21:12.130Z,-3.42
2023-03-02T01:23:39.970Z,-3.48
2023-03-02T01:26:07.490Z,-3.44
2023-03-02T01:28:34.882Z,-3.47
2023-03-02T01:31:04.054Z,-3.45
2023-03-02T01:33:32.057Z,-3.49
2023-03-02T01:35:59.528Z,-3.44
2023-03-02T01:38:27.294Z,-3.45
2023-03-02T01:40:55.198Z,-3.32
2023-03-02T01:43:22.916Z,-3.27
2023-03-02T01:45:57.863Z,-3.15
2023-03-02T01:48:49.416Z,-3.10
2023-03-02T01:51:24.982Z,-3.02
2023-03-02T01:54:00.300Z,-2.96
2023-03-02T01:56:31.972Z,-2.83
2023-03-02T01:59:02.112Z,-2.68
2023-03-02T02:01:34.546Z,-2.55
2023-03-02T02:04:03.038Z,-2.50
2023-03-02T02:06:35.580Z,-2.47
2023-03-02T02:09:03.721Z,-2.29
2023-03-02T02:11:31.545Z,-2.20
2023-03-02T02:14:01.085Z,-2.15
2023-03-02T02:16:31.044Z,-2.05
2023-03-02T02:18:59.072Z,-1.93
2023-03-02T02:21:27.147Z,-1.89
2023-03-02T02:24:12.684Z,-1.88
2023-03-02T02:26:46.366Z,-1.81
2023-03-02T02:29:19.491Z,-1.72
2023-03-02T02:32:10.284Z,-1.67
2023-03-02T02:35:01.045Z,-1.61
2023-03-02T02:37:36.442Z,-1.56
2023-03-02T02:40:07.562Z,-1.55
2023-03-02T02:42:38.703Z,-1.48
2023-03-02T02:45:16.518Z,-1.45
2023-03-02T02:47:43.834Z,-1.43
2023-03-02T02:50:19.275Z,-1.34
2023-03-02T02:52:49.532Z,-1.26
2023-03-02T02:55:20.969Z,-1.18
2023-03-02T02:57:52.233Z,-1.15
2023-03-02T03:00:20.958Z,-1.08
2023-03-02T03:02:53.908Z,-1.03
2023-03-02T03:05:21.613Z,-1.05
2023-03-02T03:07:48.746Z,-1.10
2023-03-02T03:10:40.258Z,-1.09
2023-03-02T03:13:10.460Z,-1.05
2023-03-02T03:15:38.505Z,-1.04
2023-03-02T03:18:05.793Z,-1.09
2023-03-02T03:20:34.305Z,-1.05
2023-03-02T03:23:01.682Z,-0.98
2023-03-02T03:25:32.232Z,-1.00
2023-03-02T03:28:00.360Z,-0.99
2023-03-02T03:30:27.733Z,-0.98
2023-03-02T03:32:55.123Z,-0.99
2023-03-02T03:35:23.010Z,-1.02
2023-03-02T03:37:51.896Z,-1.00
2023-03-02T03:40:20.057Z,-0.94
2023-03-02T03:42:48.511Z,-0.89
2023-03-02T03:45:15.950Z,-0.92
2023-03-02T03:47:44.449Z,-0.91
2023-03-02T03:50:12.159Z,-0.87
2023-03-02T03:52:40.403Z,-0.81
2023-03-02T03:55:16.541Z,-0.75
2023-03-02T03:57:45.733Z,-0.73
2023-03-02T04:00:17.358Z,-0.69
2023-03-02T04:02:53.092Z,-0.69
2023-03-02T04:05:21.383Z,-0.72
2023-03-02T04:07:51.781Z,-0.72
2023-03-02T04:10:20.053Z,-0.76
2023-03-02T04:12:48.374Z,-0.75
2023-03-02T04:15:17.018Z,-0.72
2023-03-02T04:17:46.428Z,-0.73
2023-03-02T04:20:17.360Z,-0.74
2023-03-02T04:22:50.085Z,-0.65
2023-03-02T04:25:19.907Z,-0.56
2023-03-02T04:27:49.198Z,-0.64
2023-03-02T04:30:19.875Z,-0.72
2023-03-02T04:32:47.361Z,-0.80
2023-03-02T04:35:15.615Z,-0.82
2023-03-02T04:37:43.540Z,-0.84
2023-03-02T04:40:12.691Z,-0.82
2023-03-02T04:42:39.734Z,-0.79
2023-03-02T04:45:07.954Z,-0.73
2023-03-02T04:47:35.220Z,-0.69
2023-03-02T04:50:03.517Z,-0.74
2023-03-02T04:52:30.768Z,-0.75
2023-03-02T04:54:58.261Z,-0.78
2023-03-02T04:57:25.451Z,-0.62
2023-03-02T04:59:52.976Z,-0.72
2023-03-02T05:02:20.314Z,-0.77
2023-03-02T05:04:47.579Z,-0.72
2023-03-02T05:07:15.077Z,-0.66
2023-03-02T05:09:42.349Z,-0.69
2023-03-02T05:12:09.891Z,-0.68
2023-03-02T05:14:37.207Z,-0.71
2023-03-02T05:17:04.744Z,-0.67
2023-03-02T05:19:32.179Z,-0.82
2023-03-02T05:21:59.781Z,-0.78
2023-03-02T05:24:27.615Z,-0.72
2023-03-02T05:26:55.146Z,-0.66
2023-03-02T05:29:22.505Z,-0.79
2023-03-02T05:32:47.147Z,-0.63
2023-03-02T05:35:14.664Z,-0.62
2023-03-02T05:37:44.818Z,-0.53
2023-03-02T05:40:15.000Z,-0.47
2023-03-02T05:42:43.190Z,-0.43
2023-03-02T05:45:18.387Z,-0.38
2023-03-02T05:47:45.878Z,-0.35
2023-03-02T05:50:13.328Z,-0.35
2023-03-02T05:52:40.902Z,-0.37
2023-03-02T05:55:08.551Z,-0.44
2023-03-02T05:57:36.096Z,-0.31
2023-03-02T06:00:05.795Z,-0.28
2023-03-02T06:02:40.302Z,-0.26
2023-03-02T06:05:11.121Z,-0.37
2023-03-02T06:07:38.830Z,-0.36
2023-03-02T06:10:07.512Z,-0.30
2023-03-02T06:12:36.454Z,-0.28
2023-03-02T06:15:05.643Z,-0.29
2023-03-02T06:17:33.787Z,-0.32
2023-03-02T06:20:01.082Z,-0.34
2023-03-02T06:22:28.502Z,-0.36
2023-03-02T06:24:56.066Z,-0.33
2023-03-02T06:27:23.661Z,-0.26
2023-03-02T06:29:51.013Z,-0.26
2023-03-02T06:32:18.599Z,-0.22
2023-03-02T06:34:46.232Z,-0.29
2023-03-02T06:37:13.631Z,-0.29
2023-03-02T06:39:40.970Z,-0.23
2023-03-02T06:42:08.623Z,-0.27
2023-03-02T06:44:35.969Z,-0.26
2023-03-02T06:47:03.489Z,-0.17
2023-03-02T06:49:30.851Z,-0.20
2023-03-02T06:51:58.811Z,-0.06
2023-03-02T06:54:26.215Z,-0.05
2023-03-02T06:56:53.739Z,0.01
2023-03-02T06:59:20.879Z,0.02
2023-03-02T07:01:50.641Z,-0.03
2023-03-02T07:04:17.848Z,0.01
2023-03-02T07:06:45.341Z,0.05
2023-03-02T07:09:12.791Z,-0.01
2023-03-02T07:11:40.918Z,0.13
2023-03-02T07:14:08.186Z,0.11
2023-03-02T07:16:35.979Z,0.07
2023-03-02T07:19:03.524Z,0.14
2023-03-02T07:21:34.772Z,0.16
2023-03-02T07:24:02.177Z,0.14
2023-03-02T07:26:29.901Z,0.16
2023-03-02T07:28:59.489Z,0.20
2023-03-02T07:31:27.795Z,0.19
2023-03-02T07:33:55.205Z,0.19
2023-03-02T07:36:22.970Z,0.20
2023-03-02T07:38:50.227Z,0.27
2023-03-02T07:41:18.074Z,0.20
2023-03-02T07:43:45.528Z,0.22
2023-03-02T07:46:13.137Z,0.18
2023-03-02T07:48:40.426Z,0.20
2023-03-02T07:51:08.039Z,0.20
2023-03-02T07:53:36.475Z,0.29
2023-03-02T07:56:09.039Z,0.25
2023-03-02T07:58:36.301Z,0.38
2023-03-02T08:01:04.957Z,0.33
2023-03-02T08:03:32.624Z,0.38
2023-03-02T08:06:11.054Z,0.33
2023-03-02T08:08:38.736Z,0.33
2023-03-02T08:11:11.929Z,0.39
2023-03-02T08:13:39.631Z,0.36
2023-03-02T08:16:09.278Z,0.32
2023-03-02T08:18:37.600Z,0.21
2023-03-02T08:21:12.166Z,0.32
2023-03-02T08:23:39.618Z,0.35
2023-03-02T08:26:07.361Z,0.35
2023-03-02T08:28:35.335Z,0.39
2023-03-02T08:31:04.394Z,0.45
2023-03-02T08:33:31.945Z,0.52
2023-03-02T08:36:05.384Z,0.52
2023-03-02T08:38:33.372Z,0.57
2023-03-02T08:41:08.150Z,0.56
2023-03-02T08:43:36.008Z,0.59
2023-03-02T08:46:04.412Z,0.57
2023-03-02T08:48:31.901Z,0.70
2023-03-02T08:51:05.873Z,0.79
2023-03-02T08:53:36.762Z,0.79
2023-03-02T08:56:07.549Z,0.86
2023-03-02T08:58:34.780Z,0.84
2023-03-02T09:01:02.526Z,0.88
2023-03-02T09:03:29.821Z,0.95
2023-03-02T09:05:57.752Z,0.98
2023-03-02T09:08:25.338Z,0.98
2023-03-02T09:10:53.474Z,0.99
2023-03-02T09:13:21.150Z,1.07
2023-03-02T09:15:49.378Z,1.12
2023-03-02T09:18:16.636Z,1.22
2023-03-02T09:20:44.207Z,1.26
2023-03-02T09:23:13.726Z,1.25
2023-03-02T09:25:41.418Z,1.29
2023-03-02T09:28:10.083Z,1.21
2023-03-02T09:30:37.868Z,1.23
2023-03-02T09:33:05.388Z,1.27
2023-03-02T09:35:33.234Z,1.27
2023-03-02T09:38:00.636Z,1.35
2023-03-02T09:40:29.131Z,1.31
2023-03-02T09:43:18.210Z,1.36
2023-03-02T09:46:15.207Z,1.39
2023-03-02T09:49:19.771Z,1.44
2023-03-02T09:51:54.310Z,1.48
2023-03-02T09:54:25.341Z,1.54
2023-03-02T09:56:55.440Z,1.53
2023-03-02T09:59:45.666Z,1.50
2023-03-02T10:02:13.316Z,1.54
2023-03-02T10:04:44.028Z,1.49
2023-03-02T10:07:20.427Z,1.47
2023-03-02T10:09:47.867Z,1.53
2023-03-02T10:12:19.482Z,1.59
2023-03-02T10:14:57.784Z,1.52
2023-03-02T10:17:53.106Z,1.61
2023-03-02T10:20:34.126Z,1.63
2023-03-02T10:23:20.505Z,1.49
2023-03-02T10:25:51.624Z,1.43
2023-03-02T10:28:25.462Z,1.45
2023-03-02T10:31:07.777Z,1.34
2023-03-02T10:33:37.826Z,1.33
2023-03-02T10:36:06.421Z,1.31
2023-03-02T10:38:38.282Z,1.33
2023-03-02T10:41:07.230Z,1.38
2023-03-02T10:43:40.357Z,1.37
2023-03-02T10:46:09.594Z,1.43
2023-03-02T10:48:54.091Z,1.41
2023-03-02T10:51:23.930Z,1.47
2023-03-02T10:54:12.178Z,1.40
2023-03-02T10:56:42.645Z,1.46
2023-03-02T10:59:29.602Z,1.41
2023-03-02T11:02:04.644Z,1.40
2023-03-02T11:04:32.309Z,1.39
2023-03-02T11:07:29.177Z,1.37
2023-03-02T11:10:07.393Z,1.29
2023-03-02T11:12:36.778Z,1.46
2023-03-02T11:15:23.719Z,1.43
2023-03-02T11:17:54.579Z,1.47
2023-03-02T11:20:29.292Z,1.62
2023-03-02T11:23:06.409Z,1.72
2023-03-02T11:25:39.594Z,1.59
2023-03-02T11:28:45.431Z,1.64
2023-03-02T11:31:26.999Z,1.67
2023-03-02T11:34:20.187Z,1.75
2023-03-02T11:36:54.754Z,1.99
2023-03-02T11:39:26.664Z,2.02
2023-03-02T11:41:54.401Z,2.12
2023-03-02T11:44:21.911Z,2.17
2023-03-02T11:46:56.564Z,2.18
2023-03-02T11:49:43.508Z,2.26
2023-03-02T11:52:19.002Z,2.30
2023-03-02T11:54:51.599Z,2.40
2023-03-02T11:57:20.739Z,2.46
2023-03-02T11:59:48.701Z,2.49
2023-03-02T12:02:16.908Z,2.54
2023-03-02T12:04:44.652Z,2.55
2023-03-02T12:07:24.312Z,2.56
2023-03-02T12:10:04.713Z,2.49
2023-03-02T12:12:46.497Z,2.46
2023-03-02T12:15:50.930Z,2.44
2023-03-02T12:18:21.705Z,2.51
2023-03-02T12:21:09.539Z,2.54
2023-03-02T12:23:58.667Z,2.61
2023-03-02T12:26:30.342Z,2.67
2023-03-02T12:29:10.206Z,2.65
2023-03-02T12:31:40.710Z,2.71
2023-03-02T12:34:24.158Z,2.70
2023-03-02T12:36:54.905Z,2.80
2023-03-02T12:39:36.969Z,2.78
2023-03-02T12:42:37.298Z,2.76
2023-03-02T12:45:23.410Z,2.77
2023-03-02T12:47:59.681Z,2.73
2023-03-02T12:50:30.424Z,2.80
2023-03-02T12:53:17.304Z,2.69
2023-03-02T12:55:45.406Z,2.72
2023-03-02T12:58:22.055Z,2.80
2023-03-02T13:01:13.633Z,2.90
2023-03-02T13:03:48.424Z,2.84
2023-03-02T13:06:19.597Z,2.88
2023-03-02T13:08:51.113Z,2.70
2023-03-02T13:11:29.109Z,2.69
2023-03-02T13:13:56.965Z,2.59
2023-03-02T13:16:27.005Z,2.64
2023-03-02T13:19:02.371Z,2.60
2023-03-02T13:21:35.559Z,2.68
2023-03-02T13:24:03.049Z,2.67
2023-03-02T13:26:37.064Z,2.60
2023-03-02T13:29:23.239Z,2.74
2023-03-02T13:31:50.761Z,2.65
2023-03-02T13:34:25.388Z,2.73
2023-03-02T13:36:53.334Z,2.66
2023-03-02T13:39:23.156Z,2.76
2023-03-02T13:41:56.336Z,2.77
2023-03-02T13:44:32.447Z,2.78
2023-03-02T13:47:01.106Z,2.82
2023-03-02T13:49:35.958Z,2.82
2023-03-02T13:52:14.211Z,2.84
2023-03-02T13:54:42.718Z,2.87
2023-03-02T13:57:17.568Z,2.76
2023-03-02T13:59:45.238Z,2.70
2023-03-02T14:02:27.948Z,2.65
2023-03-02T14:04:57.635Z,2.57
2023-03-02T14:07:25.421Z,2.50
2023-03-02T14:09:52.805Z,2.50
2023-03-02T14:12:29.350Z,2.56
2023-03-02T14:14:58.866Z,2.59
2023-03-02T14:17:26.929Z,2.55
2023-03-02T14:19:55.426Z,2.70
2023-03-02T14:22:24.968Z,2.66
2023-03-02T14:24:53.679Z,2.76
2023-03-02T14:27:23.401Z,2.78
2023-03-02T14:29:50.714Z,2.80
2023-03-02T14:32:18.402Z,2.85
2023-03-02T14:34:45.685Z,2.79
2023-03-02T14:37:18.863Z,2.73
2023-03-02T14:39:48.113Z,2.78
2023-03-02T14:42:17.986Z,2.70
2023-03-02T14:44:48.714Z,2.65
2023-03-02T14:47:18.690Z,2.68
2023-03-02T14:49:46.146Z,2.57
2023-03-02T14:52:15.943Z,2.60
2023-03-02T14:54:46.842Z,2.66
2023-03-02T14:57:25.980Z,2.67
2023-03-02T14:59:54.121Z,2.71
2023-03-02T15:02:26.191Z,2.63
2023-03-02T15:04:57.604Z,2.73
2023-03-02T15:07:27.686Z,2.61
2023-03-02T15:10:00.292Z,2.62
2023-03-02T15:12:28.559Z,2.58
2023-03-02T15:14:56.001Z,2.58
2023-03-02T15:17:23.527Z,2.45
2023-03-02T15:19:51.326Z,2.43
2023-03-02T15:22:18.986Z,2.30
2023-03-02T15:24:46.268Z,2.24
2023-03-02T15:27:13.901Z,2.18
2023-03-02T15:29:48.242Z,2.12
2023-03-02T15:32:16.565Z,2.08
2023-03-02T15:34:44.384Z,2.08
2023-03-02T15:37:12.984Z,2.08
2023-03-02T15:39:40.853Z,2.02
2023-03-02T15:42:08.498Z,2.00
2023-03-02T15:44:35.993Z,2.03
2023-03-02T15:47:03.791Z,2.00
2023-03-02T15:49:32.953Z,1.87
2023-03-02T15:52:00.850Z,1.86
2023-03-02T15:54:29.060Z,1.86
2023-03-02T15:56:56.927Z,1.75
2023-03-02T15:59:26.455Z,1.73
2023-03-02T16:01:59.199Z,1.66
2023-03-02T16:04:27.444Z,1.58
2023-03-02T16:06:56.528Z,1.46
2023-03-02T16:09:25.140Z,1.32
2023-03-02T16:11:53.214Z,1.22
2023-03-02T16:14:20.588Z,1.10
2023-03-02T16:16:48.455Z,1.05
2023-03-02T16:19:19.073Z,0.86
2023-03-02T16:21:48.036Z,0.93
2023-03-02T16:24:17.231Z,0.81
2023-03-02T16:26:45.460Z,0.70
2023-03-02T16:29:13.609Z,0.57
2023-03-02T16:31:41.673Z,0.42
2023-03-02T16:34:09.986Z,0.35
2023-03-02T16:36:39.196Z,0.25
2023-03-02T16:39:08.031Z,0.10
2023-03-02T16:41:36.284Z,-0.03
2023-03-02T16:44:03.604Z,-0.21
2023-03-02T16:46:36.336Z,-0.25
2023-03-02T16:49:04.359Z,-0.37
2023-03-02T16:51:32.590Z,-0.44
2023-03-02T16:54:00.030Z,-0.60
2023-03-02T16:56:27.965Z,-0.64
2023-03-02T16:58:55.694Z,-0.78
2023-03-02T17:01:24.812Z,-0.77
2023-03-02T17:03:52.601Z,-0.86
2023-03-02T17:06:22.499Z,-0.90
2023-03-02T17:08:50.936Z,-0.93
2023-03-02T17:11:19.605Z,-0.97
2023-03-02T17:13:47.049Z,-1.04
2023-03-02T17:16:16.383Z,-1.07
2023-03-02T17:18:47.406Z,-1.17
2023-03-02T17:21:17.089Z,-1.15
2023-03-02T17:23:45.694Z,-1.23
2023-03-02T17:26:13.315Z,-1.29
2023-03-02T17:28:40.687Z,-1.35
2023-03-02T17:31:08.607Z,-1.45
2023-03-02T17:33:38.053Z,-1.42
2023-03-02T17:36:07.586Z,-1.46
2023-03-02T17:38:35.153Z,-1.52
2023-03-02T17:41:06.582Z,-1.58
2023-03-02T17:43:36.151Z,-1.59
2023-03-02T17:46:25.537Z,-1.63
2023-03-02T17:48:55.852Z,-1.66
2023-03-02T17:51:24.643Z,-1.67
2023-03-02T17:53:53.105Z,-1.71
2023-03-02T17:56:23.667Z,-1.77
2023-03-02T17:59:02.339Z,-1.77
2023-03-02T18:01:30.636Z,-1.83
2023-03-02T18:03:58.388Z,-1.94
2023-03-02T18:06:26.269Z,-1.90
2023-03-02T18:08:53.926Z,-1.89
2023-03-02T18:11:23.493Z,-1.91
2023-03-02T18:13:51.345Z,-1.97
2023-03-02T18:16:19.144Z,-2.02
2023-03-02T18:18:46.696Z,-2.07
2023-03-02T18:21:14.757Z,-2.07
2023-03-02T18:23:42.336Z,-2.09
2023-03-02T18:26:09.948Z,-2.16
2023-03-02T18:28:37.471Z,-2.13
2023-03-02T18:31:05.461Z,-2.18
2023-03-02T18:33:33.075Z,-2.22
2023-03-02T18:36:05.242Z,-2.26
2023-03-02T18:38:36.712Z,-2.25
2023-03-02T18:41:05.892Z,-2.29
2023-03-02T18:43:35.236Z,-2.31
2023-03-02T18:46:04.480Z,-2.35
2023-03-02T18:48:32.502Z,-2.36
2023-03-02T18:51:00.264Z,-2.43
2023-03-02T18:53:27.592Z,-2.39
2023-03-02T18:55:56.136Z,-2.41
2023-03-02T18:58:24.130Z,-2.42
2023-03-02T19:00:54.044Z,-2.44
2023-03-02T19:03:21.963Z,-2.46
2023-03-02T19:05:56.297Z,-2.40
2023-03-02T19:08:27.799Z,-2.39
2023-03-02T19:11:17.136Z,-2.46
2023-03-02T19:13:54.143Z,-2.38
2023-03-02T19:16:26.936Z,-2.39
2023-03-02T19:19:00.166Z,-2.44
2023-03-02T19:21:33.823Z,-2.42
2023-03-02T19:24:08.514Z,-2.45
2023-03-02T19:26:39.060Z,-2.48
2023-03-02T19:29:08.093Z,-2.48
2023-03-02T19:31:41.271Z,-2.49
2023-03-02T19:34:11.246Z,-2.52
2023-03-02T19:36:38.997Z,-2.45
2023-03-02T19:39:06.846Z,-2.47
2023-03-02T19:41:34.542Z,-2.42
2023-03-02T19:44:02.257Z,-2.52
2023-03-02T19:46:30.039Z,-2.50
2023-03-02T19:48:57.400Z,-2.46
2023-03-02T19:51:25.400Z,-2.46
2023-03-02T19:53:53.112Z,-2.52
2023-03-02T19:56:21.598Z,-2.52
2023-03-02T19:58:50.656Z,-2.55
2023-03-02T20:01:21.958Z,-2.54
2023-03-02T20:03:53.384Z,-2.65
2023-03-02T20:06:23.810Z,-2.53
2023-03-02T20:08:51.353Z,-2.59
2023-03-02T20:11:19.389Z,-2.56
2023-03-02T20:13:48.395Z,-2.58
2023-03-02T20:16:16.258Z,-2.58
2023-03-02T20:18:45.780Z,-2.59
2023-03-02T20:21:13.575Z,-2.59
2023-03-02T20:23:40.887Z,-2.67
2023-03-02T20:26:09.557Z,-2.67
2023-03-02T20:28:37.087Z,-2.67
2023-03-02T20:31:09.180Z,-2.74
2023-03-02T20:33:43.398Z,-2.70
2023-03-02T20:36:14.510Z,-2.70
2023-03-02T20:38:50.902Z,-2.70
2023-03-02T20:41:19.450Z,-2.68
2023-03-02T20:43:47.313Z,-2.69
2023-03-02T20:46:29.661Z,-2.71
2023-03-02T20:48:57.470Z,-2.76
2023-03-02T20:51:27.168Z,-2.78
2023-03-02T20:53:55.002Z,-2.82
2023-03-02T20:56:23.627Z,-2.86
2023-03-02T20:58:51.728Z,-2.85
2023-03-02T21:01:20.713Z,-2.84
2023-03-02T21:03:48.423Z,-2.81
2023-03-02T21:06:17.177Z,-2.86
2023-03-02T21:08:47.574Z,-2.85
2023-03-02T21:11:18.405Z,-2.87
2023-03-02T21:13:47.411Z,-2.88
2023-03-02T21:16:24.901Z,-2.96
2023-03-02T21:18:53.276Z,-2.96
2023-03-02T21:21:29.717Z,-2.97
2023-03-02T21:24:03.235Z,-2.98
2023-03-02T21:26:31.284Z,-2.95
2023-03-02T21:28:58.750Z,-2.94
2023-03-02T21:31:26.536Z,-3.01
2023-03-02T21:33:54.051Z,-3.04
2023-03-02T21:36:23.303Z,-3.01
2023-03-02T21:38:51.774Z,-3.06
2023-03-02T21:41:19.868Z,-3.07
2023-03-02T21:43:47.938Z,-3.18
2023-03-02T21:46:18.536Z,-3.15
2023-03-02T21:48:47.016Z,-3.22
2023-03-02T21:51:15.524Z,-3.29
2023-03-02T21:53:42.934Z,-3.22
2023-03-02T21:56:14.965Z,-3.17
2023-03-02T21:58:42.785Z,-3.16
2023-03-02T22:01:10.565Z,-3.16
2023-03-02T22:03:37.938Z,-3.17
2023-03-02T22:06:06.210Z,-3.19
2023-03-02T22:08:35.503Z,-3.21
2023-03-02T22:11:03.343Z,-3.16
2023-03-02T22:13:32.535Z,-3.17
2023-03-02T22:16:22.874Z,-3.22
2023-03-02T22:18:57.782Z,-3.16
2023-03-02T22:21:34.433Z,-3.14
2023-03-02T22:24:24.883Z,-3.11
2023-03-02T22:26:57.134Z,-3.14
2023-03-02T22:29:25.724Z,-3.07
2023-03-02T22:31:55.581Z,-3.04
2023-03-02T22:34:28.081Z,-3.00
2023-03-02T22:37:00.239Z,-3.05
2023-03-02T22:39:31.432Z,-3.01
2023-03-02T22:42:06.281Z,-3.00
2023-03-02T22:44:34.309Z,-3.00
2023-03-02T22:47:02.292Z,-3.02
2023-03-02T22:49:30.118Z,-3.02
2023-03-02T22:52:21.110Z,-3.04
2023-03-02T22:54:48.371Z,-3.13
2023-03-02T22:57:31.199Z,-3.18
2023-03-02T23:00:27.718Z,-3.17
2023-03-02T23:02:55.976Z,-3.21
2023-03-02T23:05:31.518Z,-3.12
2023-03-02T23:08:22.689Z,-3.06
2023-03-02T23:10:51.536Z,-3.15
2023-03-02T23:13:21.597Z,-3.06
2023-03-02T23:15:49.712Z,-3.05
2023-03-02T23:18:22.710Z,-3.02
2023-03-02T23:20:51.310Z,-3.01
2023-03-02T23:23:20.140Z,-3.03
2023-03-02T23:25:47.277Z,-3.00
2023-03-02T23:28:15.009Z,-2.96
2023-03-02T23:30:42.468Z,-2.93
2023-03-02T23:33:10.367Z,-2.92
2023-03-02T23:35:37.595Z,-2.91
2023-03-02T23:38:05.405Z,-2.93
2023-03-02T23:40:32.626Z,-2.90
2023-03-02T23:43:00.318Z,-2.90
2023-03-02T23:45:27.840Z,-2.90
2023-03-02T23:47:55.441Z,-2.90
2023-03-02T23:50:22.790Z,-2.88
2023-03-02T23:52:50.213Z,-2.90
2023-03-02T23:55:18.081Z,-2.93
2023-03-02T23:57:45.595Z,-3.08
